Time;durP1;ratioP1;P1;durP2;ratioP2;P2;SDS_P1;SDS_P2;PMS_P1;PMS_P2;Temp;Humidity;BMP_temperature;BMP_pressure;BME280_temperature;BME280_humidity;BME280_pressure;Samples;Min_cycle;Max_cycle;Signal;HPM_P1;HPM_P2
2022/09/18 00:00:10;;;;;;;11.57;0.68;;;11.40;99.90;;;;;;10424740;28;20057;-60
2022/09/18 00:05:11;;;;;;;4.07;0.30;;;11.50;99.90;;;;;;10425223;28;20057;-60
2022/09/18 00:10:13;;;;;;;3.90;1.20;;;11.40;99.90;;;;;;10424569;28;20072;-62
2022/09/18 00:15:15;;;;;;;3.00;0.28;;;11.30;99.90;;;;;;10421652;28;20123;-61
2022/09/18 00:20:16;;;;;;;0.95;0.30;;;11.20;99.90;;;;;;10404387;28;20478;-62
2022/09/18 00:25:18;;;;;;;2.70;0.40;;;11.20;99.90;;;;;;10405871;28;20507;-61
2022/09/18 00:30:20;;;;;;;0.52;0.20;;;11.10;99.90;;;;;;10415789;28;20847;-61
2022/09/18 00:35:21;;;;;;;4.18;0.30;;;11.10;99.90;;;;;;10422580;28;20084;-60
2022/09/18 00:40:23;;;;;;;3.10;0.20;;;11.10;99.90;;;;;;10418815;28;20159;-60
2022/09/18 00:45:25;;;;;;;1.63;1.13;;;11.00;99.90;;;;;;10422746;28;20064;-60
2022/09/18 00:50:27;;;;;;;2.63;0.50;;;11.00;99.90;;;;;;10407913;28;20133;-60
2022/09/18 00:55:32;;;;;;;5.72;0.45;;;11.00;99.90;;;;;;10424916;28;20057;-60
2022/09/18 01:00:34;;;;;;;3.95;0.50;;;11.00;99.90;;;;;;10406661;28;20139;-60
2022/09/18 01:05:58;;;;;;;1.40;0.30;;;10.90;99.90;;;;;;10426027;28;20049;-61
2022/09/18 01:11:33;;;;;;;1.42;0.30;;;10.80;99.90;;;;;;10403603;28;20460;-60
2022/09/18 01:16:48;;;;;;;4.30;0.38;;;10.80;99.90;;;;;;10406459;28;20079;-62
2022/09/18 01:22:29;;;;;;;5.68;0.30;;;10.80;99.90;;;;;;10377453;28;20060;-61
2022/09/18 01:28:03;;;;;;;2.15;0.30;;;10.80;99.90;;;;;;10398880;28;20049;-61
2022/09/18 01:33:11;;;;;;;0.85;0.30;;;10.80;99.90;;;;;;10427583;28;20076;-60
2022/09/18 01:38:34;;;;;;;1.05;0.65;;;10.80;99.90;;;;;;10427262;28;20624;-61
2022/09/18 01:43:38;;;;;;;2.97;0.22;;;10.80;99.90;;;;;;10402759;28;20115;-60
2022/09/18 01:48:46;;;;;;;1.08;0.20;;;10.90;99.90;;;;;;10411064;28;20731;-60
2022/09/18 01:54:03;;;;;;;2.53;0.30;;;10.90;99.90;;;;;;10427663;28;20052;-61
2022/09/18 01:59:11;;;;;;;1.25;0.30;;;10.90;99.90;;;;;;10429689;28;20135;-62
2022/09/18 02:04:17;;;;;;;5.57;0.17;;;11.00;99.90;;;;;;10426991;28;20138;-61
2022/09/18 02:09:19;;;;;;;1.65;0.30;;;10.90;99.90;;;;;;10406415;28;20048;-61
2022/09/18 02:14:43;;;;;;;3.20;0.30;;;10.90;99.90;;;;;;10424838;28;20149;-60
2022/09/18 02:20:00;;;;;;;0.60;0.10;;;10.90;99.90;;;;;;10424436;28;20077;-60
2022/09/18 02:25:05;;;;;;;2.90;0.20;;;10.90;99.90;;;;;;10426284;28;20069;-60
2022/09/18 02:30:08;;;;;;;1.25;0.20;;;10.90;99.90;;;;;;10428347;28;20056;-62
2022/09/18 02:35:10;;;;;;;1.55;0.20;;;10.80;99.90;;;;;;10426566;28;20127;-61
2022/09/18 02:40:23;;;;;;;1.38;0.20;;;10.80;99.90;;;;;;10428411;28;20140;-62
2022/09/18 02:45:37;;;;;;;0.55;0.15;;;10.80;99.90;;;;;;10425731;28;20049;-62
2022/09/18 02:51:05;;;;;;;0.73;0.30;;;10.80;99.90;;;;;;10420570;28;20148;-62
2022/09/18 02:56:22;;;;;;;0.50;0.25;;;10.80;99.90;;;;;;10384860;28;20132;-63
2022/09/18 03:01:26;;;;;;;1.95;0.20;;;10.80;99.90;;;;;;10406445;28;20483;-61
2022/09/18 03:06:27;;;;;;;4.32;0.20;;;10.90;99.90;;;;;;10425556;28;20128;-62
2022/09/18 03:11:29;;;;;;;1.85;0.20;;;10.90;99.90;;;;;;10412238;28;20053;-62
2022/09/18 03:16:31;;;;;;;1.55;0.20;;;10.90;99.90;;;;;;10411794;28;20762;-62
2022/09/18 03:21:33;;;;;;;0.38;0.13;;;10.90;99.90;;;;;;10427814;28;20053;-62
2022/09/18 03:26:34;;;;;;;2.58;0.28;;;10.80;99.90;;;;;;10404166;28;20140;-61
2022/09/18 03:31:36;;;;;;;3.30;0.20;;;10.70;99.90;;;;;;10420965;28;20136;-62
2022/09/18 03:36:38;;;;;;;3.40;0.28;;;10.80;99.90;;;;;;10425849;28;20072;-62
2022/09/18 03:41:40;;;;;;;1.95;0.20;;;10.70;99.90;;;;;;10428233;28;20041;-61
2022/09/18 03:46:42;;;;;;;0.77;0.30;;;10.80;99.90;;;;;;10428978;28;20218;-62
2022/09/18 03:51:44;;;;;;;2.35;0.30;;;10.80;99.90;;;;;;10428020;28;20552;-60
2022/09/18 03:56:45;;;;;;;0.30;0.20;;;10.90;99.90;;;;;;10428108;28;20056;-61
2022/09/18 04:01:47;;;;;;;0.98;0.20;;;10.90;99.90;;;;;;10427090;28;20052;-62
2022/09/18 04:06:49;;;;;;;1.85;0.38;;;11.00;99.90;;;;;;10427663;28;20056;-61
2022/09/18 04:11:51;;;;;;;1.33;0.10;;;11.10;99.90;;;;;;10409529;28;20580;-61
2022/09/18 04:16:53;;;;;;;0.40;0.20;;;11.10;99.90;;;;;;10426182;28;20127;-60
2022/09/18 04:21:55;;;;;;;1.65;0.20;;;11.20;99.90;;;;;;10423201;28;20045;-60
2022/09/18 04:26:56;;;;;;;0.85;0.10;;;11.20;99.90;;;;;;10422796;28;20036;-60
2022/09/18 04:31:58;;;;;;;0.10;0.10;;;11.20;99.90;;;;;;10401257;28;20503;-60
2022/09/18 04:36:59;;;;;;;0.60;0.20;;;11.20;99.90;;;;;;10424428;28;20079;-61
2022/09/18 04:42:02;;;;;;;0.82;0.55;;;11.20;99.90;;;;;;10426939;28;20079;-60
2022/09/18 04:47:05;;;;;;;5.97;0.17;;;11.20;99.90;;;;;;10432631;28;20063;-60
2022/09/18 04:52:06;;;;;;;1.38;0.20;;;11.20;99.90;;;;;;10435083;28;20733;-60
2022/09/18 04:57:08;;;;;;;0.88;0.10;;;11.30;99.90;;;;;;10434992;28;20083;-60
2022/09/18 05:02:09;;;;;;;5.65;0.68;;;11.20;99.90;;;;;;10433069;28;20045;-60
2022/09/18 05:07:11;;;;;;;2.25;0.10;;;11.20;99.90;;;;;;10430800;28;20071;-68
2022/09/18 05:12:13;;;;;;;0.93;0.25;;;11.30;99.90;;;;;;10432659;28;20132;-67
2022/09/18 05:17:14;;;;;;;2.83;0.10;;;11.20;99.90;;;;;;10391585;28;20049;-66
2022/09/18 05:22:16;;;;;;;0.22;0.10;;;11.30;99.90;;;;;;10399268;28;20136;-66
2022/09/18 05:27:18;;;;;;;2.17;0.15;;;11.20;99.90;;;;;;10417680;28;20395;-66
2022/09/18 05:32:25;;;;;;;0.90;0.10;;;11.30;99.90;;;;;;10432718;28;20053;-67
2022/09/18 05:37:26;;;;;;;0.20;0.10;;;11.30;99.90;;;;;;10405575;28;20124;-67
2022/09/18 05:42:28;;;;;;;0.80;0.10;;;11.20;99.90;;;;;;10414103;28;20131;-67
2022/09/18 05:47:32;;;;;;;0.75;0.00;;;11.30;99.90;;;;;;10421826;28;20124;-67
2022/09/18 05:52:33;;;;;;;1.17;0.20;;;11.30;99.90;;;;;;10430450;28;20139;-68
2022/09/18 05:57:35;;;;;;;0.20;0.10;;;11.30;99.90;;;;;;10430388;28;20406;-67
2022/09/18 06:02:36;;;;;;;0.43;0.00;;;11.30;99.90;;;;;;10429068;28;20131;-68
2022/09/18 06:07:38;;;;;;;0.85;0.22;;;11.40;99.90;;;;;;10429779;28;20044;-68
2022/09/18 06:12:40;;;;;;;0.20;0.00;;;11.40;99.90;;;;;;10430549;28;20044;-68
2022/09/18 06:17:42;;;;;;;3.28;0.10;;;11.40;99.90;;;;;;10431267;28;20136;-68
2022/09/18 06:22:43;;;;;;;0.25;0.10;;;11.40;99.90;;;;;;10428260;28;20247;-67
2022/09/18 06:27:45;;;;;;;0.28;0.03;;;11.50;99.90;;;;;;10429850;28;20145;-67
2022/09/18 06:32:47;;;;;;;2.45;0.10;;;11.60;99.90;;;;;;10431353;28;20127;-68
2022/09/18 06:37:48;;;;;;;2.75;0.63;;;11.60;99.90;;;;;;10428514;28;20088;-68
2022/09/18 06:42:54;;;;;;;2.17;0.10;;;11.60;99.90;;;;;;10428040;28;20064;-67
2022/09/18 06:48:03;;;;;;;2.60;0.10;;;11.70;99.90;;;;;;10400770;28;20555;-67
2022/09/18 06:53:06;;;;;;;1.23;0.00;;;11.70;99.90;;;;;;10410236;28;20041;-68
2022/09/18 06:58:14;;;;;;;1.15;0.10;;;11.80;99.90;;;;;;10413351;28;20045;-67
2022/09/18 07:03:16;;;;;;;3.17;0.15;;;11.90;99.90;;;;;;10415863;28;20506;-67
2022/09/18 07:08:18;;;;;;;0.50;0.10;;;12.00;99.90;;;;;;10426374;28;20063;-67
2022/09/18 07:13:19;;;;;;;0.20;0.10;;;11.90;99.90;;;;;;10428686;28;20123;-67
2022/09/18 07:18:21;;;;;;;0.52;0.03;;;12.00;99.90;;;;;;10424166;28;20049;-67
2022/09/18 07:23:23;;;;;;;0.10;0.00;;;12.00;99.90;;;;;;10394434;28;20454;-66
2022/09/18 07:28:25;;;;;;;0.80;0.00;;;11.90;99.90;;;;;;10417686;28;20048;-66
2022/09/18 07:33:26;;;;;;;0.10;0.10;;;11.90;99.90;;;;;;10405132;28;20061;-67
2022/09/18 07:38:29;;;;;;;0.13;0.03;;;11.90;99.90;;;;;;10426926;28;20140;-66
2022/09/18 07:43:31;;;;;;;0.38;0.00;;;11.80;99.90;;;;;;10407505;28;20660;-67
2022/09/18 07:48:34;;;;;;;0.60;0.00;;;11.60;99.90;;;;;;10402168;28;20068;-67
2022/09/18 07:53:36;;;;;;;0.05;0.00;;;11.60;99.90;;;;;;10422494;28;20414;-70
2022/09/18 07:58:38;;;;;;;0.10;0.05;;;11.40;99.90;;;;;;10409246;28;20449;-72
2022/09/18 08:03:39;;;;;;;0.75;0.10;;;11.40;99.90;;;;;;10427017;28;20488;-73
2022/09/18 08:08:42;;;;;;;0.82;0.30;;;11.20;99.90;;;;;;10423712;28;20099;-72
2022/09/18 08:13:48;;;;;;;1.55;0.00;;;11.20;99.90;;;;;;10407658;28;20041;-72
2022/09/18 08:18:49;;;;;;;0.10;0.10;;;11.10;99.90;;;;;;10420750;28;20483;-75
2022/09/18 08:23:51;;;;;;;0.08;0.00;;;11.00;99.90;;;;;;10420132;28;20055;-74
2022/09/18 08:28:53;;;;;;;2.78;0.10;;;11.10;99.90;;;;;;10412535;28;20076;-73
2022/09/18 08:33:54;;;;;;;0.00;0.00;;;11.20;99.90;;;;;;10426824;28;20534;-71
2022/09/18 08:38:56;;;;;;;0.10;0.00;;;11.20;99.90;;;;;;10422185;28;20130;-65
2022/09/18 08:44:04;;;;;;;0.10;0.00;;;11.30;99.90;;;;;;10423284;28;20082;-69
2022/09/18 08:49:26;;;;;;;0.20;0.00;;;11.40;99.90;;;;;;10409142;28;20140;-71
2022/09/18 08:54:56;;;;;;;0.20;0.00;;;11.60;99.90;;;;;;10416865;28;20045;-70
2022/09/18 09:00:05;;;;;;;0.52;0.00;;;11.80;99.90;;;;;;10395343;28;20104;-72
2022/09/18 09:05:14;;;;;;;0.20;0.10;;;11.90;99.90;;;;;;10422970;28;20072;-71
2022/09/18 09:10:41;;;;;;;0.00;0.00;;;12.10;99.90;;;;;;10413899;28;20120;-70
2022/09/18 09:16:12;;;;;;;0.17;0.00;;;12.20;99.90;;;;;;10424144;28;20525;-70
2022/09/18 09:21:23;;;;;;;0.20;0.10;;;12.30;99.90;;;;;;10415527;28;20133;-72
2022/09/18 09:26:25;;;;;;;2.50;0.20;;;12.20;99.90;;;;;;10423585;28;20084;-68
2022/09/18 09:31:35;;;;;;;0.13;0.03;;;12.20;99.90;;;;;;10425730;28;20223;-68
2022/09/18 09:36:39;;;;;;;0.55;0.10;;;12.20;99.90;;;;;;10431247;28;20048;-69
2022/09/18 09:41:53;;;;;;;1.67;0.20;;;12.40;99.90;;;;;;10431668;28;20126;-69
2022/09/18 09:47:15;;;;;;;1.00;0.10;;;12.40;99.90;;;;;;10432609;28;20053;-69
2022/09/18 09:52:25;;;;;;;0.45;0.10;;;12.50;99.90;;;;;;10371362;28;20050;-67
2022/09/18 09:57:48;;;;;;;0.20;0.10;;;12.40;99.90;;;;;;10411311;28;20136;-69
2022/09/18 10:03:00;;;;;;;0.17;0.10;;;12.40;99.90;;;;;;10430680;28;20115;-69
2022/09/18 10:08:05;;;;;;;1.38;0.20;;;12.50;99.90;;;;;;10399753;28;20068;-69
2022/09/18 10:13:18;;;;;;;4.65;0.40;;;12.60;99.90;;;;;;10417548;28;20479;-68
2022/09/18 10:18:32;;;;;;;0.40;0.20;;;12.80;99.90;;;;;;10425216;28;20053;-69
2022/09/18 10:23:42;;;;;;;0.65;0.13;;;12.90;99.90;;;;;;10427349;28;20491;-67
2022/09/18 10:28:44;;;;;;;0.60;0.38;;;13.00;99.90;;;;;;10401775;28;20140;-69
2022/09/18 10:33:48;;;;;;;0.35;0.10;;;13.10;99.90;;;;;;10410187;28;20049;-69
2022/09/18 10:38:50;;;;;;;0.98;0.10;;;13.20;99.90;;;;;;10420452;28;20076;-68
2022/09/18 10:44:00;;;;;;;0.85;0.10;;;13.20;99.90;;;;;;10424281;28;20064;-69
2022/09/18 10:49:48;;;;;;;0.15;0.10;;;13.20;99.90;;;;;;10402583;28;20447;-68
2022/09/18 10:54:58;;;;;;;0.38;0.10;;;13.10;99.90;;;;;;10331058;28;20053;-70
2022/09/18 11:00:01;;;;;;;2.30;0.10;;;13.10;99.90;;;;;;10390333;28;20044;-66
2022/09/18 11:05:03;;;;;;;1.92;0.10;;;13.10;99.90;;;;;;10418165;28;20103;-69
2022/09/18 11:10:08;;;;;;;0.10;0.10;;;13.20;99.90;;;;;;10400796;28;20155;-70
2022/09/18 11:15:15;;;;;;;0.88;0.32;;;13.20;99.90;;;;;;10404811;28;20132;-69
2022/09/18 11:20:25;;;;;;;0.13;0.00;;;13.30;99.90;;;;;;10423155;28;20065;-70
2022/09/18 11:25:28;;;;;;;0.20;0.20;;;13.30;99.90;;;;;;10403162;28;20142;-68
2022/09/18 11:30:35;;;;;;;1.05;0.22;;;13.40;99.90;;;;;;10418524;28;20037;-68
2022/09/18 11:35:44;;;;;;;4.28;0.50;;;13.40;99.90;;;;;;10390139;28;20503;-67
2022/09/18 11:40:50;;;;;;;0.70;0.20;;;13.50;99.90;;;;;;10424823;28;23891;-67
2022/09/18 11:46:14;;;;;;;0.63;0.03;;;13.50;99.90;;;;;;10425597;28;20056;-67
2022/09/18 11:51:25;;;;;;;0.10;0.10;;;13.50;99.90;;;;;;10418009;28;22800;-67
2022/09/18 11:56:47;;;;;;;0.10;0.08;;;13.40;99.90;;;;;;10398516;28;20054;-67
2022/09/18 12:01:55;;;;;;;0.55;0.20;;;13.40;99.90;;;;;;10421602;28;20055;-68
2022/09/18 12:07:15;;;;;;;0.10;0.00;;;13.40;99.90;;;;;;10379587;28;20045;-67
2022/09/18 12:12:45;;;;;;;2.95;0.10;;;13.40;99.90;;;;;;10386113;28;20044;-68
2022/09/18 12:18:00;;;;;;;0.10;0.10;;;13.50;99.90;;;;;;10415418;28;20111;-68
2022/09/18 12:23:02;;;;;;;0.30;0.20;;;13.40;99.90;;;;;;10423686;28;20446;-66
2022/09/18 12:28:14;;;;;;;0.70;0.10;;;13.50;99.90;;;;;;10421799;28;20049;-66
2022/09/18 12:33:22;;;;;;;1.00;0.00;;;13.50;99.90;;;;;;10418302;28;23061;-69
2022/09/18 12:39:08;;;;;;;0.80;0.10;;;13.50;99.90;;;;;;10418420;28;20068;-68
2022/09/18 12:44:36;;;;;;;1.05;0.10;;;13.50;99.90;;;;;;10402572;28;20060;-67
2022/09/18 12:50:12;;;;;;;0.85;0.22;;;13.50;99.90;;;;;;10423029;28;20079;-67
2022/09/18 12:55:35;;;;;;;0.52;0.20;;;13.50;99.90;;;;;;10421780;28;20068;-67
2022/09/18 13:00:39;;;;;;;0.20;0.20;;;13.60;99.90;;;;;;10415206;28;20132;-67
2022/09/18 13:06:01;;;;;;;2.30;0.10;;;13.50;99.90;;;;;;10429631;28;20045;-67
2022/09/18 13:11:11;;;;;;;0.30;0.20;;;13.50;99.90;;;;;;10409251;28;20053;-66
2022/09/18 13:16:40;;;;;;;1.13;0.10;;;13.50;99.90;;;;;;10422030;28;20053;-67
2022/09/18 13:21:43;;;;;;;0.30;0.10;;;13.50;99.90;;;;;;10409482;28;20222;-66
2022/09/18 13:26:47;;;;;;;1.75;0.20;;;13.50;99.90;;;;;;10431400;28;20045;-69
2022/09/18 13:31:52;;;;;;;1.77;0.10;;;13.50;99.90;;;;;;10429352;28;20044;-67
2022/09/18 13:37:05;;;;;;;2.78;0.22;;;13.40;99.90;;;;;;10424378;28;20077;-66
2022/09/18 13:42:06;;;;;;;0.90;0.20;;;13.30;99.90;;;;;;10424258;28;20049;-66
2022/09/18 13:47:15;;;;;;;1.25;0.22;;;13.30;99.90;;;;;;10428668;28;20072;-67
2022/09/18 13:52:30;;;;;;;0.30;0.20;;;13.20;99.90;;;;;;10398836;28;20049;-68
2022/09/18 13:57:32;;;;;;;1.58;0.20;;;13.20;99.90;;;;;;10421347;28;20116;-67
2022/09/18 14:02:38;;;;;;;0.38;0.20;;;13.20;99.90;;;;;;10399848;28;20762;-66
2022/09/18 14:07:44;;;;;;;0.67;0.30;;;13.20;99.90;;;;;;10419176;28;20143;-68
2022/09/18 14:13:01;;;;;;;2.95;0.30;;;13.10;99.90;;;;;;10358082;28;20124;-67
2022/09/18 14:18:13;;;;;;;0.32;0.20;;;13.10;99.90;;;;;;10406257;28;20118;-67
2022/09/18 14:23:33;;;;;;;0.70;0.32;;;13.00;99.90;;;;;;10408119;28;20593;-67
2022/09/18 14:28:46;;;;;;;2.95;0.38;;;13.10;99.90;;;;;;10416758;28;20128;-67
2022/09/18 14:33:48;;;;;;;0.63;0.20;;;13.30;99.90;;;;;;10406387;28;20136;-67
2022/09/18 14:38:49;;;;;;;0.73;0.20;;;13.30;99.90;;;;;;10390431;28;20158;-68
2022/09/18 14:44:02;;;;;;;0.88;0.22;;;13.40;99.90;;;;;;10407872;28;20048;-68
2022/09/18 14:49:27;;;;;;;0.85;0.22;;;13.40;99.90;;;;;;10401891;28;20049;-67
2022/09/18 14:54:30;;;;;;;0.90;0.20;;;13.40;99.90;;;;;;10403839;28;20058;-68
2022/09/18 14:59:31;;;;;;;0.35;0.10;;;13.40;99.90;;;;;;10406226;28;20124;-68
2022/09/18 15:04:34;;;;;;;1.45;0.20;;;13.30;99.90;;;;;;10421851;28;20136;-67
2022/09/18 15:09:38;;;;;;;0.65;0.30;;;13.30;99.90;;;;;;10416197;28;20033;-68
2022/09/18 15:14:43;;;;;;;0.97;0.17;;;13.20;99.90;;;;;;10395367;28;20052;-68
2022/09/18 15:19:57;;;;;;;1.85;0.22;;;13.10;99.90;;;;;;10388447;28;20279;-69
2022/09/18 15:25:00;;;;;;;0.40;0.22;;;13.00;99.90;;;;;;10420373;28;20127;-66
2022/09/18 15:30:08;;;;;;;1.65;0.20;;;13.10;99.90;;;;;;10405008;28;20045;-67
2022/09/18 15:35:20;;;;;;;0.73;0.20;;;12.90;99.90;;;;;;10423155;28;20057;-67
2022/09/18 15:40:28;;;;;;;0.25;0.20;;;12.90;99.90;;;;;;10397190;28;20107;-67
2022/09/18 15:45:32;;;;;;;1.42;0.20;;;12.80;99.90;;;;;;10376686;28;20060;-68
2022/09/18 15:50:39;;;;;;;1.83;0.20;;;12.80;99.90;;;;;;10390602;28;20064;-67
2022/09/18 15:55:56;;;;;;;3.67;1.00;;;12.70;99.90;;;;;;10370463;28;20052;-68
2022/09/18 16:01:01;;;;;;;0.90;0.20;;;12.70;99.90;;;;;;10405389;28;20131;-67
2022/09/18 16:06:07;;;;;;;1.00;0.30;;;12.60;99.90;;;;;;10408100;28;20049;-68
2022/09/18 16:11:36;;;;;;;2.95;0.17;;;12.60;99.90;;;;;;10403118;28;20112;-67
2022/09/18 16:16:38;;;;;;;1.75;0.20;;;12.40;99.90;;;;;;10383186;28;20045;-67
2022/09/18 16:21:42;;;;;;;1.10;0.22;;;12.40;99.90;;;;;;10408993;28;20504;-65
2022/09/18 16:26:43;;;;;;;0.47;0.20;;;12.30;99.90;;;;;;10398845;28;20124;-66
2022/09/18 16:31:45;;;;;;;2.10;0.20;;;12.30;99.90;;;;;;10394274;28;20044;-66
2022/09/18 16:36:48;;;;;;;1.45;0.10;;;12.20;99.90;;;;;;10414736;28;20052;-66
2022/09/18 16:41:49;;;;;;;1.20;0.30;;;12.20;99.90;;;;;;10416517;28;20144;-67
2022/09/18 16:46:57;;;;;;;1.13;0.40;;;12.10;99.90;;;;;;10372956;28;20077;-67
2022/09/18 16:51:59;;;;;;;0.63;0.30;;;12.10;99.90;;;;;;10395209;28;20364;-67
2022/09/18 16:57:05;;;;;;;0.30;0.30;;;12.10;99.90;;;;;;10397392;28;20154;-66
2022/09/18 17:02:07;;;;;;;0.63;0.30;;;12.00;99.90;;;;;;10415944;28;20055;-67
2022/09/18 17:07:09;;;;;;;1.63;0.30;;;12.00;99.90;;;;;;10412577;28;20580;-68
2022/09/18 17:12:11;;;;;;;0.85;0.38;;;11.90;99.90;;;;;;10409065;28;20132;-72
2022/09/18 17:17:12;;;;;;;0.60;0.30;;;11.80;99.90;;;;;;10415288;28;20132;-68
2022/09/18 17:22:14;;;;;;;0.85;0.20;;;11.60;99.90;;;;;;10413600;28;20419;-67
2022/09/18 17:27:16;;;;;;;0.30;0.20;;;11.60;99.90;;;;;;10419384;28;20063;-67
2022/09/18 17:32:18;;;;;;;1.20;0.30;;;11.50;99.90;;;;;;10414545;28;20136;-67
2022/09/18 17:37:20;;;;;;;1.50;0.20;;;11.50;99.90;;;;;;10414581;28;20063;-68
2022/09/18 17:42:22;;;;;;;0.68;0.28;;;11.50;99.90;;;;;;10401976;28;20140;-68
2022/09/18 17:47:23;;;;;;;0.52;0.38;;;11.50;99.90;;;;;;10411997;28;20129;-68
2022/09/18 17:52:27;;;;;;;0.65;0.30;;;11.40;99.90;;;;;;10427127;28;20045;-68
2022/09/18 17:57:29;;;;;;;0.85;0.30;;;11.50;99.90;;;;;;10425239;28;20074;-68
2022/09/18 18:02:31;;;;;;;0.60;0.25;;;11.50;99.90;;;;;;10413196;28;20084;-68
2022/09/18 18:07:33;;;;;;;0.50;0.35;;;11.40;99.90;;;;;;10396709;28;20045;-68
2022/09/18 18:12:35;;;;;;;2.70;0.40;;;11.40;99.90;;;;;;10408505;28;20091;-68
2022/09/18 18:17:39;;;;;;;0.40;0.22;;;11.40;99.90;;;;;;10428404;28;20136;-68
2022/09/18 18:22:41;;;;;;;1.80;0.30;;;11.40;99.90;;;;;;10429747;28;20076;-68
2022/09/18 18:27:42;;;;;;;0.43;0.30;;;11.40;99.90;;;;;;10429597;28;20068;-69
2022/09/18 18:32:44;;;;;;;1.75;0.70;;;11.30;99.90;;;;;;10426448;28;20068;-67
2022/09/18 18:37:46;;;;;;;0.52;0.08;;;11.30;99.90;;;;;;10423914;28;20052;-68
2022/09/18 18:42:48;;;;;;;0.10;0.00;;;11.10;99.90;;;;;;10428115;28;20053;-68
2022/09/18 18:47:50;;;;;;;0.38;0.10;;;10.80;99.90;;;;;;10390909;28;20077;-69
2022/09/18 18:52:52;;;;;;;0.32;0.05;;;10.50;99.90;;;;;;10424112;28;20049;-70
2022/09/18 18:57:53;;;;;;;0.43;0.10;;;10.40;99.90;;;;;;10403994;28;20105;-71
2022/09/18 19:02:55;;;;;;;1.77;0.10;;;10.30;99.90;;;;;;10422843;28;20080;-66
2022/09/18 19:07:57;;;;;;;1.20;0.10;;;10.20;99.90;;;;;;10413500;28;20076;-70
2022/09/18 19:12:59;;;;;;;0.00;0.00;;;10.20;99.90;;;;;;10417481;28;20076;-69
2022/09/18 19:18:02;;;;;;;0.60;0.05;;;10.10;99.90;;;;;;10409619;28;20140;-67
2022/09/18 19:23:05;;;;;;;0.60;0.03;;;10.00;99.90;;;;;;10425613;28;20057;-68
2022/09/18 19:28:07;;;;;;;1.15;0.10;;;9.90;99.90;;;;;;10424255;28;20045;-68
2022/09/18 19:33:14;;;;;;;1.88;0.00;;;9.90;99.90;;;;;;10383065;28;20057;-68
2022/09/18 19:38:18;;;;;;;0.25;0.00;;;9.90;99.90;;;;;;10407423;28;20118;-68
2022/09/18 19:43:28;;;;;;;0.13;0.10;;;9.90;99.90;;;;;;10417178;28;20053;-68
2022/09/18 19:48:30;;;;;;;0.75;0.10;;;9.80;99.90;;;;;;10417001;28;20076;-69
2022/09/18 19:53:31;;;;;;;0.73;0.10;;;9.80;99.90;;;;;;10422171;28;20144;-68
2022/09/18 19:58:34;;;;;;;0.00;0.00;;;9.70;99.90;;;;;;10389931;28;20049;-62
2022/09/18 20:03:37;;;;;;;0.20;0.00;;;9.60;99.90;;;;;;10405685;28;20037;-62
2022/09/18 20:08:39;;;;;;;0.82;0.10;;;9.50;99.90;;;;;;10403058;28;20143;-62
2022/09/18 20:13:40;;;;;;;0.00;0.00;;;9.40;99.90;;;;;;10421704;28;20145;-63
2022/09/18 20:18:43;;;;;;;0.00;0.00;;;9.40;99.90;;;;;;10420265;28;20134;-63
2022/09/18 20:23:47;;;;;;;0.22;0.00;;;9.40;99.90;;;;;;10400026;28;20053;-64
2022/09/18 20:28:48;;;;;;;0.30;0.10;;;9.40;99.90;;;;;;10414357;28;20124;-62
2022/09/18 20:33:55;;;;;;;1.63;0.10;;;9.40;99.90;;;;;;10409121;28;20706;-62
2022/09/18 20:39:02;;;;;;;0.10;0.00;;;9.40;99.90;;;;;;10409593;28;20125;-63
2022/09/18 20:44:04;;;;;;;1.50;0.27;;;9.30;99.90;;;;;;10409551;28;20284;-63
2022/09/18 20:49:07;;;;;;;0.57;0.00;;;9.30;99.90;;;;;;10404549;28;20290;-62
2022/09/18 20:54:12;;;;;;;0.88;0.00;;;9.30;99.90;;;;;;10416352;28;20047;-62
2022/09/18 20:59:16;;;;;;;0.20;0.00;;;9.20;99.90;;;;;;10415566;28;20131;-61
2022/09/18 21:04:19;;;;;;;0.00;0.00;;;9.20;99.90;;;;;;10404002;28;20430;-62
2022/09/18 21:09:25;;;;;;;0.10;0.00;;;9.30;99.90;;;;;;10401343;28;20598;-62
2022/09/18 21:14:27;;;;;;;0.10;0.00;;;9.20;99.90;;;;;;10409142;28;20045;-63
2022/09/18 21:19:29;;;;;;;0.47;0.10;;;9.30;99.90;;;;;;10408123;28;20081;-65
2022/09/18 21:24:31;;;;;;;0.65;0.00;;;9.20;99.90;;;;;;10414340;28;20131;-61
2022/09/18 21:29:33;;;;;;;0.90;0.00;;;9.10;99.90;;;;;;10428439;28;20041;-63
2022/09/18 21:34:34;;;;;;;0.20;0.10;;;9.00;99.90;;;;;;10432738;28;20057;-63
2022/09/18 21:39:37;;;;;;;0.00;0.00;;;9.00;99.90;;;;;;10426121;28;20049;-62
2022/09/18 21:44:39;;;;;;;0.13;0.00;;;9.00;99.90;;;;;;10412045;28;20033;-62
2022/09/18 21:49:42;;;;;;;1.75;0.05;;;9.00;99.90;;;;;;10408960;28;20052;-63
2022/09/18 21:54:43;;;;;;;0.10;0.00;;;8.90;99.90;;;;;;10409235;28;20115;-65
2022/09/18 21:59:46;;;;;;;1.08;0.10;;;8.90;99.90;;;;;;10399833;28;20057;-63
2022/09/18 22:04:47;;;;;;;0.05;0.00;;;8.90;99.90;;;;;;10408241;28;20056;-64
2022/09/18 22:09:49;;;;;;;0.05;0.00;;;8.80;99.90;;;;;;10425080;28;20408;-63
2022/09/18 22:14:51;;;;;;;1.17;0.00;;;;;;;;;;10418253;28;20053;-62
2022/09/18 22:19:55;;;;;;;1.17;0.00;;;;;;;;;;10430355;28;20446;-64
2022/09/18 22:24:57;;;;;;;0.43;0.00;;;;;;;;;;10424721;28;20140;-64
2022/09/18 22:29:59;;;;;;;0.30;0.10;;;;;;;;;;10400384;28;20113;-62
2022/09/18 22:35:01;;;;;;;2.08;0.10;;;;;;;;;;10425787;28;20594;-64
2022/09/18 22:40:04;;;;;;;0.00;0.00;;;;;;;;;;10424490;28;20049;-64
2022/09/18 22:45:07;;;;;;;0.50;0.50;;;;;;;;;;10428007;28;20055;-63
2022/09/18 22:50:09;;;;;;;0.32;0.00;;;;;;;;;;10414082;28;20132;-64
2022/09/18 22:55:12;;;;;;;1.95;0.10;;;;;;;;;;10408301;28;20118;-62
2022/09/18 23:00:14;;;;;;;1.58;0.13;;;;;;;;;;10405205;28;20132;-63
2022/09/18 23:05:17;;;;;;;0.82;0.13;;;;;;;;;;10401178;28;20058;-62
2022/09/18 23:10:20;;;;;;;1.10;0.05;;;;;;;;;;10404625;28;20144;-62
2022/09/18 23:15:22;;;;;;;0.00;0.00;;;;;;;;;;10388239;28;20045;-62
2022/09/18 23:20:25;;;;;;;0.10;0.00;;;;;;;;;;10403152;28;20137;-62
2022/09/18 23:25:27;;;;;;;0.22;0.10;;;;;;;;;;10419536;28;20153;-63
2022/09/18 23:30:29;;;;;;;1.98;0.10;;;;;;;;;;10409940;28;20091;-62
2022/09/18 23:35:31;;;;;;;0.25;0.10;;;;;;;;;;10407721;28;20127;-64
2022/09/18 23:40:34;;;;;;;0.20;0.10;;;;;;;;;;10414274;28;20124;-62
2022/09/18 23:45:36;;;;;;;0.68;0.10;;;;;;;;;;10423842;28;20053;-62
2022/09/18 23:50:41;;;;;;;2.78;0.20;;;;;;;;;;10416380;28;20612;-62
2022/09/18 23:55:43;;;;;;;0.77;0.20;;;;;;;;;;10398832;28;20071;-62
